createdAt,value
2023-03-28T00:04:14.073Z,74.92
2023-03-28T00:09:16.872Z,75.00
2023-03-28T00:14:18.429Z,75.15
2023-03-28T00:19:20.725Z,75.63
2023-03-28T00:24:22.749Z,75.75
2023-03-28T00:29:26.130Z,76.46
2023-03-28T00:34:27.816Z,76.74
2023-03-28T00:39:29.673Z,76.80
2023-03-28T00:44:43.485Z,76.52
2023-03-28T00:49:49.597Z,76.45
2023-03-28T00:54:53.737Z,76.52
2023-03-28T00:59:56.605Z,76.31
2023-03-28T01:05:03.839Z,77.20
2023-03-28T01:10:08.038Z,77.17
2023-03-28T01:15:10.941Z,77.37
2023-03-28T01:20:40.041Z,77.16
2023-03-28T01:25:41.728Z,76.70
2023-03-28T01:31:16.752Z,76.61
2023-03-28T01:37:10.757Z,76.54
2023-03-28T01:42:42.542Z,76.97
2023-03-28T01:47:53.763Z,77.41
2023-03-28T01:53:10.724Z,77.55
2023-03-28T01:58:49.982Z,77.80
2023-03-28T02:04:07.372Z,77.75
2023-03-28T02:09:33.090Z,77.80
2023-03-28T02:14:49.305Z,77.83
2023-03-28T02:20:28.040Z,76.92
2023-03-28T02:25:49.821Z,76.66
2023-03-28T02:31:07.258Z,76.80
2023-03-28T02:36:33.388Z,76.34
2023-03-28T02:41:55.430Z,76.27
2023-03-28T02:47:15.810Z,76.72
2023-03-28T02:52:52.390Z,76.25
2023-03-28T02:58:18.112Z,75.51
2023-03-28T03:03:20.340Z,75.66
2023-03-28T03:08:24.984Z,75.76
2023-03-28T03:13:29.404Z,75.53
2023-03-28T03:18:32.444Z,75.27
2023-03-28T03:23:34.123Z,75.10
2023-03-28T03:28:35.794Z,75.22
2023-03-28T03:33:41.506Z,75.34
2023-03-28T03:38:45.381Z,75.12
2023-03-28T03:43:51.884Z,75.54
2023-03-28T03:48:53.724Z,74.78
2023-03-28T03:53:58.084Z,74.78
2023-03-28T03:59:07.995Z,74.69
2023-03-28T04:04:13.138Z,74.29
2023-03-28T04:09:35.068Z,73.95
2023-03-28T04:14:38.524Z,73.82
2023-03-28T04:19:58.772Z,72.77
2023-03-28T04:25:08.676Z,72.47
2023-03-28T04:30:18.130Z,72.03
2023-03-28T04:35:51.212Z,71.46
2023-03-28T04:40:57.806Z,70.53
2023-03-28T04:46:19.955Z,69.35
2023-03-28T04:51:22.351Z,68.72
2023-03-28T04:56:24.517Z,67.89
2023-03-28T05:01:27.474Z,68.76
2023-03-28T05:07:13.048Z,67.97
2023-03-28T05:12:15.950Z,68.51
2023-03-28T05:17:33.327Z,68.26
2023-03-28T05:23:02.676Z,68.34
2023-03-28T05:28:06.188Z,68.06
2023-03-28T05:33:14.076Z,67.68
2023-03-28T05:38:16.902Z,66.51
2023-03-28T05:43:25.740Z,66.95
2023-03-28T05:48:28.341Z,67.04
2023-03-28T05:53:29.996Z,66.26
2023-03-28T05:58:34.465Z,67.43
2023-03-28T06:03:40.028Z,67.23
2023-03-28T06:08:42.193Z,67.19
2023-03-28T06:13:45.207Z,67.57
2023-03-28T06:18:48.444Z,66.10
2023-03-28T06:23:50.316Z,66.06
2023-03-28T06:28:59.367Z,65.03
2023-03-28T06:34:12.437Z,64.68
2023-03-28T06:39:27.831Z,64.22
2023-03-28T06:44:32.601Z,64.30
2023-03-28T06:49:57.046Z,63.68
2023-03-28T06:55:09.347Z,62.83
2023-03-28T07:00:16.142Z,61.52
2023-03-28T07:05:44.413Z,60.65
2023-03-28T07:10:48.618Z,59.35
2023-03-28T07:16:06.673Z,59.94
2023-03-28T07:21:18.458Z,57.83
2023-03-28T07:26:20.310Z,57.54
2023-03-28T07:31:22.489Z,58.78
2023-03-28T07:36:26.494Z,59.16
2023-03-28T07:41:30.574Z,58.27
2023-03-28T07:46:32.348Z,58.89
2023-03-28T07:51:34.297Z,58.75
2023-03-28T07:56:35.982Z,57.56
2023-03-28T08:01:53.187Z,58.27
2023-03-28T08:06:55.331Z,57.64
2023-03-28T08:11:59.744Z,58.37
2023-03-28T08:17:01.696Z,58.19
2023-03-28T08:22:05.669Z,58.98
2023-03-28T08:27:15.770Z,65.27
2023-03-28T08:32:20.511Z,65.29
2023-03-28T08:37:22.643Z,62.27
2023-03-28T08:42:39.085Z,59.60
2023-03-28T08:48:10.799Z,58.14
2023-03-28T08:53:22.248Z,59.81
2023-03-28T08:58:28.340Z,58.04
2023-03-28T09:03:33.226Z,57.12
2023-03-28T09:08:38.339Z,56.98
2023-03-28T09:14:00.529Z,55.20
2023-03-28T09:19:44.614Z,54.77
2023-03-28T09:25:30.710Z,52.82
2023-03-28T09:30:35.359Z,59.00
2023-03-28T09:35:39.656Z,69.65
2023-03-28T09:40:46.807Z,68.00
2023-03-28T09:46:06.576Z,64.65
2023-03-28T09:51:25.500Z,63.82
2023-03-28T09:56:33.161Z,57.25
2023-03-28T10:02:27.911Z,60.15
2023-03-28T10:07:45.569Z,52.68
2023-03-28T10:12:58.928Z,50.96
2023-03-28T10:18:05.051Z,53.01
2023-03-28T10:23:13.760Z,52.27
2023-03-28T10:28:29.277Z,54.57
2023-03-28T10:33:40.436Z,53.96
2023-03-28T10:38:57.498Z,50.70
2023-03-28T10:44:31.941Z,51.94
2023-03-28T10:49:52.694Z,52.46
2023-03-28T10:54:58.251Z,53.95
2023-03-28T11:00:23.582Z,51.08
2023-03-28T11:06:08.200Z,47.61
2023-03-28T11:11:30.651Z,39.82
2023-03-28T11:16:58.879Z,39.76
2023-03-28T11:23:05.091Z,41.14
2023-03-28T11:28:41.176Z,38.67
2023-03-28T11:33:54.393Z,38.17
2023-03-28T11:39:11.949Z,38.02
2023-03-28T11:44:30.315Z,38.86
2023-03-28T11:49:41.853Z,39.98
2023-03-28T11:55:15.172Z,40.86
2023-03-28T12:00:33.603Z,39.71
2023-03-28T12:05:48.807Z,37.34
2023-03-28T12:10:57.655Z,38.56
2023-03-28T12:16:27.145Z,37.43
2023-03-28T12:21:43.208Z,34.84
2023-03-28T12:26:55.872Z,36.35
2023-03-28T12:32:40.692Z,38.52
2023-03-28T12:38:08.483Z,39.74
2023-03-28T12:43:14.867Z,41.40
2023-03-28T12:48:29.532Z,39.86
2023-03-28T12:53:33.315Z,37.40
2023-03-28T12:58:36.494Z,37.82
2023-03-28T13:04:15.531Z,37.69
2023-03-28T13:10:14.754Z,38.89
2023-03-28T13:15:16.294Z,41.17
2023-03-28T13:20:18.008Z,41.95
2023-03-28T13:25:33.257Z,43.61
2023-03-28T13:30:35.350Z,40.87
2023-03-28T13:35:49.782Z,40.74
2023-03-28T13:41:09.832Z,39.55
2023-03-28T13:46:41.391Z,40.20
2023-03-28T13:51:47.779Z,39.82
2023-03-28T13:56:52.002Z,39.55
2023-03-28T14:01:56.466Z,39.34
2023-03-28T14:06:59.389Z,39.92
2023-03-28T14:12:05.515Z,38.24
2023-03-28T14:17:13.484Z,37.64
2023-03-28T14:22:21.490Z,37.98
2023-03-28T14:27:44.676Z,38.41
2023-03-28T14:32:59.075Z,38.97
2023-03-28T14:38:13.942Z,37.75
2023-03-28T14:43:31.235Z,38.82
2023-03-28T14:48:34.501Z,39.57
2023-03-28T14:53:42.268Z,38.63
2023-03-28T14:58:47.150Z,39.85
2023-03-28T15:03:57.718Z,40.00
2023-03-28T15:09:04.686Z,39.76
2023-03-28T15:14:24.674Z,39.93
2023-03-28T15:19:34.476Z,39.51
2023-03-28T15:24:38.169Z,39.23
2023-03-28T15:29:40.301Z,39.71
2023-03-28T15:34:56.242Z,39.17
2023-03-28T15:40:21.598Z,38.90
2023-03-28T15:45:36.177Z,39.04
2023-03-28T15:50:39.118Z,38.99
2023-03-28T15:55:42.354Z,38.64
2023-03-28T16:00:46.758Z,39.02
2023-03-28T16:06:01.926Z,39.20
2023-03-28T16:11:23.276Z,39.05
2023-03-28T16:17:07.774Z,40.07
2023-03-28T16:22:25.750Z,40.00
2023-03-28T16:27:30.641Z,40.23
2023-03-28T16:32:32.266Z,40.58
2023-03-28T16:37:33.937Z,39.79
2023-03-28T16:42:35.623Z,40.31
2023-03-28T16:47:38.887Z,40.84
2023-03-28T16:52:41.162Z,40.62
2023-03-28T16:57:43.276Z,41.07
2023-03-28T17:02:49.023Z,41.88
2023-03-28T17:07:50.857Z,42.24
2023-03-28T17:12:52.589Z,42.55
2023-03-28T17:17:54.468Z,42.56
2023-03-28T17:22:56.484Z,42.98
2023-03-28T17:27:58.449Z,43.44
2023-03-28T17:33:00.137Z,43.68
2023-03-28T17:38:02.234Z,44.11
2023-03-28T17:43:04.195Z,44.94
2023-03-28T17:48:06.243Z,45.06
2023-03-28T17:53:08.200Z,45.46
2023-03-28T17:58:09.853Z,46.07
2023-03-28T18:03:11.915Z,46.20
2023-03-28T18:08:31.012Z,46.35
2023-03-28T18:13:33.233Z,47.13
2023-03-28T18:18:35.048Z,46.65
2023-03-28T18:23:37.051Z,47.44
2023-03-28T18:28:38.794Z,47.24
2023-03-28T18:33:42.149Z,47.14
2023-03-28T18:38:44.464Z,47.92
2023-03-28T18:43:46.335Z,48.08
2023-03-28T18:48:47.933Z,48.93
2023-03-28T18:53:49.723Z,50.98
2023-03-28T18:58:51.473Z,50.70
2023-03-28T19:03:55.318Z,50.24
2023-03-28T19:08:57.263Z,49.64
2023-03-28T19:13:59.106Z,50.47
2023-03-28T19:19:01.064Z,50.38
2023-03-28T19:24:02.684Z,50.72
2023-03-28T19:29:04.297Z,50.22
2023-03-28T19:34:07.868Z,50.30
2023-03-28T19:39:09.622Z,51.03
2023-03-28T19:44:11.255Z,51.10
2023-03-28T19:49:15.309Z,51.43
2023-03-28T19:54:17.080Z,51.72
2023-03-28T19:59:18.866Z,52.42
2023-03-28T20:04:20.989Z,52.62
2023-03-28T20:09:24.189Z,52.33
2023-03-28T20:14:26.262Z,52.77
2023-03-28T20:19:28.916Z,52.84
2023-03-28T20:24:30.747Z,53.49
2023-03-28T20:29:35.981Z,54.57
2023-03-28T20:34:38.425Z,53.90
2023-03-28T20:39:41.782Z,54.05
2023-03-28T20:44:43.744Z,53.51
2023-03-28T20:49:46.162Z,53.39
2023-03-28T20:54:47.895Z,53.78
2023-03-28T20:59:49.522Z,54.55
2023-03-28T21:04:51.683Z,55.42
2023-03-28T21:09:54.684Z,56.13
2023-03-28T21:14:56.574Z,55.80
2023-03-28T21:19:59.261Z,55.91
2023-03-28T21:25:01.671Z,56.43
2023-03-28T21:30:07.777Z,57.29
2023-03-28T21:35:10.287Z,56.95
2023-03-28T21:40:12.174Z,57.67
2023-03-28T21:45:14.042Z,57.37
2023-03-28T21:50:16.573Z,57.81
2023-03-28T21:55:18.354Z,57.78
2023-03-28T22:00:20.770Z,58.16
2023-03-28T22:05:29.120Z,58.11
2023-03-28T22:10:31.841Z,58.21
2023-03-28T22:15:33.777Z,58.60
2023-03-28T22:20:37.392Z,61.09
2023-03-28T22:25:39.193Z,61.31
2023-03-28T22:30:41.543Z,60.50
2023-03-28T22:35:43.278Z,60.37
2023-03-28T22:40:44.955Z,60.22
2023-03-28T22:45:47.375Z,59.84
2023-03-28T22:50:50.341Z,61.82
2023-03-28T22:55:52.008Z,60.65
2023-03-28T23:00:54.858Z,59.95
2023-03-28T23:06:01.658Z,60.14
2023-03-28T23:11:04.064Z,60.75
2023-03-28T23:16:07.187Z,60.92
2023-03-28T23:21:09.079Z,61.08
2023-03-28T23:26:10.687Z,61.94
2023-03-28T23:31:12.858Z,62.42
2023-03-28T23:36:15.547Z,61.87
2023-03-28T23:41:17.248Z,63.07
2023-03-28T23:46:18.891Z,63.44
2023-03-28T23:51:20.797Z,64.16
2023-03-28T23:56:23.925Z,64.42
